Karamay, China
Current Conditions -  °F | °C
As of 2:00 AM on Tuesday 21 Oct 2014 (Local Time) from ZWWW Reporting Station
Clear Clear  
Wind Chill: 61°   Ceiling: Unl
Heat Index: 61°   Visibility: 5mi
Dew Point: 30°   Wind: 16mph
Humidity: 31%   Direction: 170°S
Pressure: 30.06"   Gusts: NA
Location:  45.6°N, 84.86°E
Report Text: ZWWW 201800Z 17007MPS 8000 NSC 16/M01 Q1018 NOSIG
Loading
Personal Weather Stations






























Interactive Weather Map
Tropical Storm Tracking
New forecast layout! Learn more

10-Day Weather Forecast

Advertisements
Track Severe Weather on mobile